Time;durP1;ratioP1;P1;durP2;ratioP2;P2;SDS_P1;SDS_P2;PMS_P1;PMS_P2;Temp;Humidity;BMP_temperature;BMP_pressure;BME280_temperature;BME280_humidity;BME280_pressure;Samples;Min_cycle;Max_cycle;Signal;HPM_P1;HPM_P2
2023/06/04 00:00:49;;;;;;;11.88;5.28;;;13.00;99.90;;;;;;4936520;29;20193;-78
2023/06/04 00:03:15;;;;;;;11.63;5.20;;;13.00;99.90;;;;;;4920951;29;20237;-78
2023/06/04 00:05:40;;;;;;;12.70;5.03;;;13.00;99.90;;;;;;4927765;29;20306;-78
2023/06/04 00:08:06;;;;;;;13.82;5.25;;;13.00;99.90;;;;;;4936614;29;20187;-78
2023/06/04 00:10:33;;;;;;;14.85;5.85;;;12.90;99.90;;;;;;4953422;29;20182;-78
2023/06/04 00:12:59;;;;;;;11.02;5.25;;;12.90;99.90;;;;;;4921722;29;20215;-78
2023/06/04 00:15:25;;;;;;;15.50;5.50;;;12.90;99.90;;;;;;4934464;29;20223;-78
2023/06/04 00:17:52;;;;;;;11.45;5.05;;;12.90;99.90;;;;;;4932879;29;20227;-78
2023/06/04 00:20:18;;;;;;;13.20;5.95;;;12.80;99.90;;;;;;4917447;29;20215;-78
2023/06/04 00:22:44;;;;;;;10.77;4.97;;;12.80;99.90;;;;;;4936149;29;20269;-78
2023/06/04 00:25:10;;;;;;;17.80;5.93;;;12.70;99.90;;;;;;4936447;29;20225;-78
2023/06/04 00:27:36;;;;;;;15.05;5.13;;;12.70;99.90;;;;;;4936119;29;20190;-79
2023/06/04 00:30:03;;;;;;;15.55;5.53;;;12.70;99.90;;;;;;4953726;29;20183;-79
2023/06/04 00:32:29;;;;;;;14.02;6.05;;;12.70;99.90;;;;;;4923036;29;20183;-78
2023/06/04 00:34:57;;;;;;;16.55;6.03;;;12.60;99.90;;;;;;4933076;29;20198;-79
2023/06/04 00:37:24;;;;;;;16.60;6.53;;;12.60;99.90;;;;;;4934607;29;20258;-78
2023/06/04 00:39:51;;;;;;;18.67;7.55;;;12.60;99.90;;;;;;4932518;29;20187;-78
2023/06/04 00:42:17;;;;;;;15.52;7.57;;;12.60;99.90;;;;;;4921115;29;20297;-78
2023/06/04 00:44:45;;;;;;;13.95;8.25;;;12.60;99.90;;;;;;4936554;29;20226;-77
2023/06/04 00:47:12;;;;;;;23.40;9.00;;;12.50;99.90;;;;;;4937582;29;20195;-78
2023/06/04 00:49:39;;;;;;;18.13;8.38;;;12.50;99.90;;;;;;4936595;29;20187;-78
2023/06/04 00:52:05;;;;;;;16.63;8.52;;;12.50;99.90;;;;;;4935919;29;20187;-78
2023/06/04 00:54:33;;;;;;;20.23;8.27;;;12.40;99.90;;;;;;4934701;29;20645;-78
2023/06/04 00:56:59;;;;;;;16.58;7.18;;;12.40;99.90;;;;;;4934090;29;20179;-78
2023/06/04 00:59:25;;;;;;;17.70;7.30;;;12.40;99.90;;;;;;4934750;29;20191;-78
2023/06/04 01:01:58;;;;;;;18.95;6.90;;;12.40;99.90;;;;;;4922188;29;20564;-78
2023/06/04 01:04:31;;;;;;;13.98;6.65;;;12.30;99.90;;;;;;4916881;29;20220;-78
2023/06/04 01:07:00;;;;;;;20.40;7.10;;;12.30;99.90;;;;;;4928461;29;20191;-78
2023/06/04 01:09:30;;;;;;;16.20;7.60;;;12.30;99.90;;;;;;4934139;29;20218;-78
2023/06/04 01:12:01;;;;;;;15.98;7.10;;;12.30;99.90;;;;;;4946723;29;20186;-78
2023/06/04 01:14:29;;;;;;;20.17;7.72;;;12.30;99.90;;;;;;4939739;29;20179;-78
2023/06/04 01:17:01;;;;;;;16.58;7.30;;;12.20;99.90;;;;;;4922711;29;20661;-78
2023/06/04 01:19:51;;;;;;;18.65;7.30;;;12.20;99.90;;;;;;4959253;29;20254;-78
2023/06/04 01:22:48;;;;;;;15.98;7.88;;;12.20;99.90;;;;;;4942625;29;20182;-78
2023/06/04 01:25:26;;;;;;;14.73;7.43;;;12.20;99.90;;;;;;4929772;29;20230;-78
2023/06/04 01:27:55;;;;;;;23.08;7.20;;;12.20;99.90;;;;;;4956440;29;20257;-78
2023/06/04 01:30:45;;;;;;;15.70;7.30;;;12.20;99.90;;;;;;4955173;29;20186;-78
2023/06/04 01:33:13;;;;;;;18.02;7.68;;;12.20;99.90;;;;;;4941156;29;20186;-78
2023/06/04 01:35:40;;;;;;;14.60;7.03;;;12.20;99.90;;;;;;4958044;29;20633;-78
2023/06/04 01:38:06;;;;;;;14.88;6.80;;;12.20;99.90;;;;;;4942036;29;20210;-78
2023/06/04 01:40:32;;;;;;;17.58;7.25;;;12.10;99.90;;;;;;4956968;28;20201;-77
2023/06/04 01:42:58;;;;;;;18.67;7.35;;;12.10;99.90;;;;;;4940335;29;20285;-77
2023/06/04 01:45:27;;;;;;;19.75;7.25;;;12.10;99.90;;;;;;4940520;29;20214;-78
2023/06/04 01:47:54;;;;;;;14.02;7.40;;;12.10;99.90;;;;;;4940680;29;20182;-78
2023/06/04 01:50:20;;;;;;;16.48;7.30;;;12.10;99.90;;;;;;4957220;29;20191;-78
2023/06/04 01:52:46;;;;;;;18.95;7.13;;;12.10;99.90;;;;;;4957174;29;20193;-77
2023/06/04 01:55:14;;;;;;;20.73;7.95;;;12.00;99.90;;;;;;4957537;29;20174;-78
2023/06/04 01:57:41;;;;;;;18.63;7.38;;;12.00;99.90;;;;;;4937123;29;20203;-77
2023/06/04 02:00:10;;;;;;;17.40;7.70;;;12.00;99.90;;;;;;4943204;29;20621;-77
2023/06/04 02:02:41;;;;;;;20.08;7.82;;;12.00;99.90;;;;;;4941243;29;20179;-78
2023/06/04 02:05:08;;;;;;;21.13;8.13;;;12.00;99.90;;;;;;4957726;29;20293;-78
2023/06/04 02:07:39;;;;;;;17.02;7.72;;;12.00;99.90;;;;;;4957521;29;20202;-79
2023/06/04 02:10:09;;;;;;;16.98;7.90;;;11.90;99.90;;;;;;4955521;29;20197;-77
2023/06/04 02:12:40;;;;;;;19.50;7.97;;;12.00;99.90;;;;;;4939582;29;20194;-80
2023/06/04 02:15:09;;;;;;;17.95;7.78;;;11.90;99.90;;;;;;4944055;29;20222;-79
2023/06/04 02:17:42;;;;;;;17.65;8.45;;;11.90;99.90;;;;;;4929362;29;20246;-79
2023/06/04 02:20:09;;;;;;;18.45;8.13;;;11.90;99.90;;;;;;4920155;29;20176;-79
2023/06/04 02:22:35;;;;;;;25.35;8.68;;;11.90;99.90;;;;;;4945140;29;20215;-79
2023/06/04 02:25:01;;;;;;;14.40;7.80;;;11.90;99.90;;;;;;4956461;29;20265;-79
2023/06/04 02:27:27;;;;;;;18.95;8.50;;;11.90;99.90;;;;;;4939775;29;20622;-78
2023/06/04 02:29:53;;;;;;;18.83;8.05;;;11.90;99.90;;;;;;4913182;29;20245;-78
2023/06/04 02:32:19;;;;;;;18.92;7.97;;;11.90;99.90;;;;;;4935979;29;20666;-78
2023/06/04 02:34:46;;;;;;;25.25;8.65;;;11.80;99.90;;;;;;4919846;29;20195;-78
2023/06/04 02:37:12;;;;;;;25.00;8.98;;;11.80;99.90;;;;;;4920090;29;20595;-78
2023/06/04 02:39:37;;;;;;;20.75;9.57;;;11.70;99.90;;;;;;4935589;29;20271;-78
2023/06/04 02:42:03;;;;;;;22.83;9.43;;;11.70;99.90;;;;;;4926874;29;20195;-78
2023/06/04 02:44:30;;;;;;;18.80;9.43;;;11.70;99.90;;;;;;4951420;29;20207;-79
2023/06/04 02:46:56;;;;;;;17.27;8.90;;;11.70;99.90;;;;;;4954125;29;20283;-79
2023/06/04 02:49:22;;;;;;;16.27;8.93;;;11.60;99.90;;;;;;4937854;29;20194;-79
2023/06/04 02:51:48;;;;;;;20.98;8.80;;;11.60;99.90;;;;;;4922227;29;20186;-79
2023/06/04 02:54:15;;;;;;;21.23;9.43;;;11.60;99.90;;;;;;4955302;29;20207;-79
2023/06/04 02:56:40;;;;;;;18.38;9.05;;;11.50;99.90;;;;;;4938114;29;20253;-78
2023/06/04 02:59:09;;;;;;;16.15;8.05;;;11.50;99.90;;;;;;4937939;29;20186;-79
2023/06/04 03:01:35;;;;;;;23.08;8.75;;;11.40;99.90;;;;;;4954781;29;20198;-80
2023/06/04 03:04:03;;;;;;;19.75;9.20;;;11.40;99.90;;;;;;4921253;29;20600;-80
2023/06/04 03:06:34;;;;;;;13.88;8.60;;;11.40;99.90;;;;;;4937950;29;20191;-80
2023/06/04 03:09:00;;;;;;;24.73;8.80;;;11.40;99.90;;;;;;4937271;29;20265;-79
2023/06/04 03:11:27;;;;;;;17.38;8.43;;;11.30;99.90;;;;;;4921550;29;20313;-79
2023/06/04 03:13:53;;;;;;;22.23;8.52;;;11.30;99.90;;;;;;4963219;28;20248;-79
2023/06/04 03:16:20;;;;;;;16.80;8.73;;;11.30;99.90;;;;;;4940695;28;20237;-79
2023/06/04 03:18:46;;;;;;;16.23;8.20;;;11.30;99.90;;;;;;4973898;28;20202;-80
2023/06/04 03:21:13;;;;;;;25.27;8.45;;;11.30;99.90;;;;;;4956269;28;20186;-79
2023/06/04 03:23:40;;;;;;;20.85;8.15;;;11.20;99.90;;;;;;4956831;28;20241;-80
2023/06/04 03:26:06;;;;;;;16.88;7.75;;;11.20;99.90;;;;;;4921386;29;20613;-79
2023/06/04 03:28:32;;;;;;;23.05;8.63;;;11.20;99.90;;;;;;4921393;29;20175;-79
2023/06/04 03:31:01;;;;;;;22.10;8.70;;;11.20;99.90;;;;;;4954567;29;20688;-80
2023/06/04 03:33:27;;;;;;;19.83;8.55;;;11.20;99.90;;;;;;4937088;29;20490;-79
2023/06/04 03:35:53;;;;;;;20.27;8.18;;;11.20;99.90;;;;;;4921104;29;20190;-79
2023/06/04 03:38:19;;;;;;;20.10;8.15;;;11.20;99.90;;;;;;4954222;29;20189;-80
2023/06/04 03:40:46;;;;;;;19.65;8.40;;;11.20;99.90;;;;;;4952116;28;20189;-79
2023/06/04 03:43:13;;;;;;;16.33;8.15;;;11.20;99.90;;;;;;4921138;29;20579;-78
2023/06/04 03:45:40;;;;;;;17.05;8.30;;;11.20;99.90;;;;;;4921088;29;20276;-81
2023/06/04 03:48:06;;;;;;;15.63;8.25;;;11.20;99.90;;;;;;4936805;29;20261;-80
2023/06/04 03:50:35;;;;;;;15.73;7.95;;;11.20;99.90;;;;;;4921482;29;20672;-79
2023/06/04 03:53:01;;;;;;;14.77;8.15;;;11.20;99.90;;;;;;4937000;29;20655;-78
2023/06/04 03:55:31;;;;;;;13.98;7.75;;;11.20;99.90;;;;;;4936676;29;20186;-79
2023/06/04 03:57:58;;;;;;;18.45;8.35;;;11.20;99.90;;;;;;4937143;29;20214;-79
2023/06/04 04:00:24;;;;;;;18.60;8.00;;;11.20;99.90;;;;;;4952188;28;20178;-79
2023/06/04 04:02:53;;;;;;;19.23;7.88;;;11.20;99.90;;;;;;4923800;29;20667;-79
2023/06/04 04:05:25;;;;;;;16.02;7.82;;;11.20;99.90;;;;;;4937615;29;20249;-81
2023/06/04 04:07:52;;;;;;;14.18;8.88;;;11.20;99.90;;;;;;4905506;29;20266;-79
2023/06/04 04:10:22;;;;;;;21.13;7.85;;;11.20;99.90;;;;;;4921414;29;20194;-79
2023/06/04 04:12:49;;;;;;;15.57;7.57;;;11.20;99.90;;;;;;4905071;29;20202;-79
2023/06/04 04:15:17;;;;;;;16.20;8.10;;;11.20;99.90;;;;;;4937072;29;20193;-80
2023/06/04 04:17:43;;;;;;;15.25;8.20;;;11.20;99.90;;;;;;4935786;29;20230;-80
2023/06/04 04:20:10;;;;;;;14.40;8.15;;;11.20;99.90;;;;;;4944886;29;20253;-81
2023/06/04 04:22:42;;;;;;;18.25;9.18;;;11.20;99.90;;;;;;4917699;29;20688;-82
2023/06/04 04:25:09;;;;;;;20.20;9.02;;;11.20;99.90;;;;;;4934741;29;20303;-80
2023/06/04 04:27:38;;;;;;;15.77;8.48;;;11.20;99.90;;;;;;4944033;29;20191;-80
2023/06/04 04:30:07;;;;;;;15.02;8.35;;;11.30;99.90;;;;;;4921138;29;20178;-80
2023/06/04 04:32:34;;;;;;;12.55;7.95;;;11.30;99.90;;;;;;4936207;29;20195;-80
2023/06/04 04:35:00;;;;;;;17.50;8.10;;;11.30;99.90;;;;;;4953425;29;20197;-80
2023/06/04 04:37:32;;;;;;;16.85;8.38;;;11.30;99.90;;;;;;4937133;29;20175;-80
2023/06/04 04:39:58;;;;;;;19.10;8.77;;;11.40;99.90;;;;;;4950017;29;20182;-82
2023/06/04 04:42:27;;;;;;;18.25;8.40;;;11.40;99.90;;;;;;4926254;29;20179;-79
2023/06/04 04:44:53;;;;;;;15.18;8.57;;;11.40;99.90;;;;;;4916994;29;20590;-80
2023/06/04 04:47:22;;;;;;;15.05;7.88;;;11.40;99.90;;;;;;4933185;29;20187;-80
2023/06/04 04:49:49;;;;;;;13.80;9.20;;;11.50;99.90;;;;;;4932540;29;20223;-80
2023/06/04 04:52:15;;;;;;;19.63;8.65;;;11.50;99.90;;;;;;4921080;29;20194;-80
2023/06/04 04:54:42;;;;;;;24.70;9.02;;;11.60;99.90;;;;;;4922402;29;20190;-82
2023/06/04 04:57:08;;;;;;;17.27;9.65;;;11.60;99.90;;;;;;4937406;29;20258;-80
2023/06/04 04:59:35;;;;;;;21.17;10.05;;;11.70;99.90;;;;;;4948259;29;20205;-82
2023/06/04 05:02:02;;;;;;;19.02;9.98;;;11.70;99.90;;;;;;4921643;29;20558;-84
2023/06/04 05:04:28;;;;;;;21.20;10.43;;;11.80;99.90;;;;;;4931229;29;20528;-81
2023/06/04 05:06:54;;;;;;;20.33;9.32;;;11.80;99.90;;;;;;4930805;29;20186;-81
2023/06/04 05:09:20;;;;;;;18.00;9.85;;;11.90;99.90;;;;;;4943370;29;20645;-79
2023/06/04 05:11:46;;;;;;;19.27;10.65;;;12.00;99.90;;;;;;4940550;29;20198;-81
2023/06/04 05:14:12;;;;;;;20.80;10.30;;;12.10;99.90;;;;;;4908261;29;20645;-80
2023/06/04 05:16:40;;;;;;;19.10;10.45;;;12.10;99.90;;;;;;4920216;29;20246;-80
2023/06/04 05:19:08;;;;;;;20.30;10.93;;;12.10;99.90;;;;;;4924100;29;20195;-80
2023/06/04 05:21:36;;;;;;;18.60;9.77;;;12.20;99.90;;;;;;4918615;29;20194;-79
2023/06/04 05:24:05;;;;;;;17.05;10.65;;;12.30;99.90;;;;;;4939040;29;20190;-80
2023/06/04 05:26:34;;;;;;;21.83;10.88;;;12.30;99.90;;;;;;4939064;29;20202;-79
2023/06/04 05:29:10;;;;;;;17.38;9.38;;;12.40;99.90;;;;;;4939236;29;20579;-79
2023/06/04 05:31:39;;;;;;;23.90;9.82;;;12.50;99.90;;;;;;4936090;29;20626;-78
2023/06/04 05:34:08;;;;;;;21.35;9.38;;;12.50;99.90;;;;;;4908664;29;20187;-79
2023/06/04 05:36:37;;;;;;;23.80;9.25;;;12.60;99.90;;;;;;4937705;29;20193;-80
2023/06/04 05:39:06;;;;;;;18.80;9.38;;;12.70;99.90;;;;;;4939437;29;20195;-79
2023/06/04 05:41:52;;;;;;;16.20;7.93;;;12.70;99.90;;;;;;4955231;29;20195;-79
2023/06/04 05:44:18;;;;;;;17.25;7.82;;;12.80;99.90;;;;;;4923545;29;20223;-79
2023/06/04 05:46:44;;;;;;;15.00;7.50;;;12.80;99.90;;;;;;4939061;29;20241;-79
2023/06/04 05:49:11;;;;;;;16.25;7.43;;;12.90;99.90;;;;;;4930685;29;20648;-79
2023/06/04 05:51:37;;;;;;;14.13;7.18;;;13.00;99.90;;;;;;4921301;29;20183;-79
2023/06/04 05:54:03;;;;;;;14.32;6.65;;;13.00;99.90;;;;;;4923223;29;20185;-79
2023/06/04 05:56:31;;;;;;;15.15;6.93;;;13.10;99.90;;;;;;4938774;29;20214;-79
2023/06/04 05:58:59;;;;;;;15.60;6.80;;;13.10;99.90;;;;;;4939005;29;20191;-79
2023/06/04 06:01:26;;;;;;;17.48;7.15;;;13.20;99.90;;;;;;4922953;29;20261;-80
2023/06/04 06:03:53;;;;;;;14.18;6.38;;;13.30;99.90;;;;;;4922220;29;20700;-79
2023/06/04 06:06:20;;;;;;;17.35;6.30;;;13.30;99.90;;;;;;4954766;29;20656;-80
2023/06/04 06:08:46;;;;;;;20.55;6.72;;;13.40;99.90;;;;;;4950318;29;20195;-79
2023/06/04 06:11:12;;;;;;;19.80;7.28;;;13.40;99.90;;;;;;4919894;29;20259;-80
2023/06/04 06:13:39;;;;;;;15.23;6.20;;;13.50;99.90;;;;;;4938666;29;20183;-79
2023/06/04 06:16:06;;;;;;;14.75;6.45;;;13.50;99.90;;;;;;4926386;29;20710;-79
2023/06/04 06:18:32;;;;;;;15.63;6.75;;;13.60;99.90;;;;;;4937856;29;20321;-79
2023/06/04 06:20:58;;;;;;;12.35;6.80;;;13.60;99.90;;;;;;4922530;29;20350;-80
2023/06/04 06:23:24;;;;;;;17.05;6.22;;;13.70;99.90;;;;;;4938315;29;20277;-80
2023/06/04 06:25:51;;;;;;;12.13;5.65;;;13.80;99.90;;;;;;4938218;29;20213;-81
2023/06/04 06:28:22;;;;;;;16.63;5.53;;;13.90;99.90;;;;;;4923845;29;20234;-84
2023/06/04 06:30:48;;;;;;;10.70;5.20;;;13.90;99.90;;;;;;4922862;29;20182;-80
2023/06/04 06:33:14;;;;;;;13.43;5.35;;;14.00;99.90;;;;;;4919271;29;20270;-80
2023/06/04 06:35:40;;;;;;;13.23;5.60;;;14.10;99.90;;;;;;4936358;29;20622;-80
2023/06/04 06:38:06;;;;;;;16.60;5.72;;;14.10;99.90;;;;;;4919393;29;20275;-82
2023/06/04 06:40:32;;;;;;;16.08;5.68;;;14.20;99.90;;;;;;4937911;29;20226;-79
2023/06/04 06:42:57;;;;;;;15.80;5.00;;;14.30;99.90;;;;;;4938125;29;20218;-81
2023/06/04 06:45:23;;;;;;;12.38;4.35;;;14.30;99.90;;;;;;4954087;29;20206;-81
2023/06/04 06:47:49;;;;;;;13.75;4.13;;;14.40;99.90;;;;;;4953895;29;20178;-80
2023/06/04 06:50:15;;;;;;;15.27;3.80;;;14.50;99.90;;;;;;4937941;29;20514;-80
2023/06/04 06:52:41;;;;;;;8.65;2.92;;;14.60;99.90;;;;;;4938074;29;20303;-80
2023/06/04 06:55:07;;;;;;;8.48;3.65;;;14.60;99.90;;;;;;4943755;29;20257;-80
2023/06/04 06:57:33;;;;;;;13.38;3.85;;;14.70;99.90;;;;;;4922501;29;20191;-80
2023/06/04 06:59:59;;;;;;;11.50;3.38;;;14.80;99.90;;;;;;4937645;29;20198;-81
2023/06/04 07:02:25;;;;;;;8.48;3.10;;;14.90;99.90;;;;;;4937842;29;20175;-80
2023/06/04 07:04:51;;;;;;;8.10;2.95;;;15.00;99.90;;;;;;4937710;29;20284;-80
2023/06/04 07:07:17;;;;;;;15.05;2.88;;;15.10;99.90;;;;;;4906377;29;20562;-80
2023/06/04 07:09:43;;;;;;;8.07;2.92;;;15.10;99.90;;;;;;4937676;29;20656;-80
2023/06/04 07:12:09;;;;;;;9.32;2.63;;;15.30;99.90;;;;;;4937861;29;20186;-80
2023/06/04 07:14:34;;;;;;;7.30;3.42;;;15.40;99.90;;;;;;4919953;28;20179;-81
2023/06/04 07:17:00;;;;;;;9.07;2.90;;;15.50;99.90;;;;;;4921727;29;20277;-82
2023/06/04 07:19:26;;;;;;;8.48;2.17;;;15.60;99.90;;;;;;4921774;29;20190;-80
2023/06/04 07:21:55;;;;;;;7.30;2.50;;;15.70;99.90;;;;;;4937474;29;20463;-81
2023/06/04 07:24:39;;;;;;;7.93;2.70;;;15.70;99.90;;;;;;4905808;29;20222;-80
2023/06/04 07:27:15;;;;;;;5.53;2.40;;;15.80;99.90;;;;;;4937220;29;20265;-85
2023/06/04 07:29:43;;;;;;;4.80;2.63;;;15.90;99.90;;;;;;4937283;29;20182;-82
2023/06/04 07:32:09;;;;;;;5.63;2.33;;;16.00;99.90;;;;;;4921883;29;20186;-82
2023/06/04 07:34:36;;;;;;;5.70;2.55;;;16.10;99.90;;;;;;4954729;29;20241;-83
2023/06/04 07:37:03;;;;;;;5.78;2.50;;;16.10;99.90;;;;;;4938145;29;20190;-84
2023/06/04 07:39:28;;;;;;;4.75;2.40;;;16.20;99.90;;;;;;4956343;28;20201;-84
2023/06/04 07:41:54;;;;;;;10.32;2.08;;;16.30;99.90;;;;;;4957915;28;20178;-82
2023/06/04 07:44:20;;;;;;;6.50;2.05;;;16.50;99.90;;;;;;4974625;28;20217;-84
2023/06/04 07:46:46;;;;;;;4.47;2.22;;;16.60;99.90;;;;;;4941401;29;20261;-83
2023/06/04 07:49:12;;;;;;;6.03;2.03;;;16.70;99.90;;;;;;4924685;29;20190;-83
2023/06/04 07:51:38;;;;;;;8.07;2.38;;;16.80;99.90;;;;;;4954135;29;20182;-84
2023/06/04 07:54:03;;;;;;;5.75;2.40;;;17.00;99.90;;;;;;4953396;29;20249;-83
2023/06/04 07:56:29;;;;;;;6.30;2.58;;;17.10;99.90;;;;;;4938648;29;20244;-82
2023/06/04 07:58:55;;;;;;;5.05;2.28;;;17.20;99.90;;;;;;4939655;29;20245;-83
2023/06/04 08:01:21;;;;;;;10.18;2.58;;;17.30;99.90;;;;;;4938966;29;20738;-82
2023/06/04 08:03:47;;;;;;;7.70;2.42;;;17.40;99.90;;;;;;4921795;29;20207;-82
2023/06/04 08:06:14;;;;;;;7.95;2.35;;;17.50;99.90;;;;;;4936714;29;20301;-82
2023/06/04 08:08:48;;;;;;;6.15;2.22;;;17.60;99.90;;;;;;4921345;29;20186;-82
2023/06/04 08:11:15;;;;;;;8.43;2.50;;;17.70;99.90;;;;;;4952812;28;20255;-83
2023/06/04 08:13:41;;;;;;;7.55;2.30;;;17.80;99.90;;;;;;4953830;28;20182;-82
2023/06/04 08:16:09;;;;;;;5.07;2.10;;;17.90;99.90;;;;;;4936799;29;20203;-81
2023/06/04 08:18:38;;;;;;;5.10;2.08;;;17.90;99.90;;;;;;4936700;29;20293;-82
2023/06/04 08:21:05;;;;;;;4.20;2.05;;;18.00;99.90;;;;;;4936315;29;20197;-82
2023/06/04 08:23:32;;;;;;;7.85;2.40;;;18.00;99.90;;;;;;4944810;29;20191;-82
2023/06/04 08:25:58;;;;;;;8.10;2.33;;;18.00;99.90;;;;;;4920633;29;20214;-82
2023/06/04 08:28:24;;;;;;;8.25;2.70;;;18.10;99.90;;;;;;4953269;29;20527;-82
2023/06/04 08:30:50;;;;;;;6.65;2.10;;;18.20;99.90;;;;;;4940730;28;20204;-82
2023/06/04 08:33:16;;;;;;;6.53;2.17;;;18.30;99.90;;;;;;4923020;28;20190;-83
2023/06/04 08:35:42;;;;;;;6.88;2.95;;;18.30;99.90;;;;;;4917208;29;20194;-82
2023/06/04 08:38:08;;;;;;;6.43;2.03;;;18.40;99.90;;;;;;4933229;29;20175;-82
2023/06/04 08:40:35;;;;;;;5.85;2.40;;;18.50;99.90;;;;;;4933488;29;20189;-85
2023/06/04 08:43:01;;;;;;;7.72;2.30;;;18.60;99.90;;;;;;4952582;28;20186;-81
2023/06/04 08:45:27;;;;;;;4.72;2.15;;;18.70;99.90;;;;;;4936182;29;20277;-81
2023/06/04 08:47:54;;;;;;;5.93;2.10;;;18.70;99.90;;;;;;4952923;29;20193;-81
2023/06/04 08:50:22;;;;;;;8.05;2.47;;;18.70;99.90;;;;;;4936253;29;20187;-80
2023/06/04 08:52:55;;;;;;;8.32;2.35;;;18.80;99.90;;;;;;4936081;29;20209;-81
2023/06/04 08:55:22;;;;;;;4.90;2.00;;;18.80;99.90;;;;;;4953769;29;20230;-80
2023/06/04 08:57:51;;;;;;;5.07;2.10;;;18.90;99.90;;;;;;4921378;29;20190;-81
2023/06/04 09:00:18;;;;;;;9.77;2.47;;;19.00;99.90;;;;;;4936154;29;20187;-81
2023/06/04 09:02:45;;;;;;;6.47;2.10;;;19.00;99.90;;;;;;4921027;29;20198;-82
2023/06/04 09:05:20;;;;;;;6.28;2.00;;;19.00;99.90;;;;;;4920486;29;20211;-81
2023/06/04 09:07:46;;;;;;;5.72;2.40;;;19.10;99.80;;;;;;4936341;29;20217;-85
2023/06/04 09:10:17;;;;;;;4.93;1.92;;;19.20;99.40;;;;;;4920628;29;20248;-81
2023/06/04 09:12:46;;;;;;;4.78;1.63;;;19.20;98.60;;;;;;4953988;29;20222;-81
2023/06/04 09:15:12;;;;;;;6.35;1.80;;;19.20;98.10;;;;;;4936498;29;20282;-81
2023/06/04 09:17:38;;;;;;;4.10;1.50;;;19.30;97.70;;;;;;4920163;29;20360;-82
2023/06/04 09:20:08;;;;;;;3.63;1.70;;;19.30;97.40;;;;;;4936238;29;20182;-81
2023/06/04 09:22:35;;;;;;;4.80;1.90;;;19.40;96.80;;;;;;4921057;29;20225;-81
2023/06/04 09:25:06;;;;;;;6.85;1.80;;;19.40;96.30;;;;;;4953189;29;20289;-81
2023/06/04 09:27:40;;;;;;;4.88;1.88;;;19.50;96.00;;;;;;4936403;29;20222;-80
2023/06/04 09:30:08;;;;;;;4.10;1.60;;;19.50;95.60;;;;;;4936357;29;20197;-81
2023/06/04 09:32:34;;;;;;;7.70;1.70;;;19.60;95.50;;;;;;4936235;29;20340;-81
2023/06/04 09:35:13;;;;;;;8.35;1.83;;;19.60;95.10;;;;;;4936079;29;20190;-81
2023/06/04 09:37:40;;;;;;;5.65;1.85;;;19.70;94.70;;;;;;4920258;28;20187;-81
2023/06/04 09:40:07;;;;;;;4.35;1.58;;;19.70;94.40;;;;;;4938193;29;20254;-81
2023/06/04 09:42:57;;;;;;;4.15;1.83;;;19.70;94.30;;;;;;4924097;29;20178;-81
2023/06/04 09:45:31;;;;;;;5.18;1.88;;;19.80;94.30;;;;;;4920243;29;20207;-81
2023/06/04 09:47:57;;;;;;;4.97;2.20;;;19.90;94.20;;;;;;4905293;29;20183;-81
2023/06/04 09:50:33;;;;;;;5.72;1.95;;;19.90;94.10;;;;;;4920502;29;20250;-80
2023/06/04 09:53:01;;;;;;;4.30;2.00;;;20.00;94.10;;;;;;4920393;29;20187;-81
2023/06/04 09:55:27;;;;;;;6.68;2.00;;;20.10;93.90;;;;;;4939426;28;20214;-80
2023/06/04 09:57:53;;;;;;;4.65;1.80;;;20.10;93.60;;;;;;4958493;28;20216;-81
2023/06/04 10:00:22;;;;;;;5.25;2.25;;;20.10;93.40;;;;;;4958747;28;20182;-81
2023/06/04 10:02:50;;;;;;;4.07;1.88;;;20.10;93.20;;;;;;4958603;28;20356;-83
2023/06/04 10:05:19;;;;;;;6.53;1.95;;;20.10;93.30;;;;;;4958291;28;20727;-81
2023/06/04 10:07:46;;;;;;;5.68;1.85;;;20.20;93.20;;;;;;4958726;28;20189;-80
2023/06/04 10:10:17;;;;;;;4.80;1.70;;;20.20;92.60;;;;;;4958409;28;20182;-81
2023/06/04 10:12:43;;;;;;;4.03;1.77;;;20.10;92.40;;;;;;4958150;28;20189;-81
2023/06/04 10:15:13;;;;;;;6.97;1.65;;;20.20;92.20;;;;;;4958465;28;20654;-81
2023/06/04 10:17:40;;;;;;;4.93;1.92;;;20.20;92.10;;;;;;4957850;28;20275;-81
2023/06/04 10:23:29;;;;;;;3.65;1.63;;;20.20;91.90;;;;;;4958103;28;20189;-81
2023/06/04 10:25:56;;;;;;;5.25;1.70;;;20.30;91.80;;;;;;4941977;28;20218;-81
2023/06/04 10:28:23;;;;;;;3.60;2.05;;;20.40;91.70;;;;;;4958189;28;20269;-81
2023/06/04 10:30:50;;;;;;;7.25;2.17;;;20.40;91.80;;;;;;4941869;28;20206;-82
2023/06/04 10:33:19;;;;;;;3.78;1.40;;;20.40;91.70;;;;;;4941740;28;20174;-82
2023/06/04 10:35:46;;;;;;;3.65;1.77;;;20.50;91.70;;;;;;4957129;28;20284;-82
2023/06/04 10:38:14;;;;;;;7.05;1.80;;;20.60;91.00;;;;;;4957988;28;20178;-81
2023/06/04 10:40:40;;;;;;;3.33;1.90;;;20.60;90.70;;;;;;4952857;29;20193;-82
2023/06/04 10:43:10;;;;;;;5.93;1.90;;;20.60;90.60;;;;;;4922539;29;20334;-82
2023/06/04 10:45:37;;;;;;;8.57;2.03;;;20.70;90.80;;;;;;4938120;29;20207;-82
2023/06/04 10:48:04;;;;;;;4.40;1.90;;;20.70;90.90;;;;;;4953805;29;20289;-81
2023/06/04 10:50:32;;;;;;;6.90;2.42;;;20.80;90.60;;;;;;4937174;29;20246;-82
2023/06/04 10:53:02;;;;;;;6.47;1.92;;;20.80;90.60;;;;;;4955041;29;20223;-82
2023/06/04 10:55:30;;;;;;;4.45;1.83;;;20.90;90.60;;;;;;4938144;29;20233;-82
2023/06/04 10:58:01;;;;;;;4.40;1.90;;;21.00;90.40;;;;;;4921907;29;20309;-82
2023/06/04 11:00:42;;;;;;;3.78;2.08;;;21.00;89.80;;;;;;4937516;29;20206;-82
2023/06/04 11:03:10;;;;;;;4.55;1.85;;;21.00;88.90;;;;;;4938258;29;20179;-81
2023/06/04 11:05:37;;;;;;;4.88;2.10;;;21.00;88.50;;;;;;4939790;29;20214;-82
2023/06/04 11:08:05;;;;;;;3.63;1.80;;;21.00;88.70;;;;;;4922160;29;20270;-82
2023/06/04 11:10:42;;;;;;;5.68;1.70;;;21.00;88.40;;;;;;4937961;29;20171;-82
2023/06/04 11:13:08;;;;;;;5.88;2.00;;;21.00;87.60;;;;;;4938083;29;20163;-82
2023/06/04 11:15:48;;;;;;;6.07;1.83;;;20.90;87.40;;;;;;4921737;29;20246;-81
2023/06/04 11:18:15;;;;;;;6.13;2.38;;;21.00;87.90;;;;;;4959152;28;20226;-82
2023/06/04 11:20:44;;;;;;;7.32;1.98;;;21.10;88.00;;;;;;4926703;29;20194;-81
2023/06/04 11:23:12;;;;;;;5.47;2.10;;;21.10;87.30;;;;;;4918922;29;20183;-82
2023/06/04 11:25:38;;;;;;;6.18;2.40;;;21.20;87.20;;;;;;4935416;29;20210;-84
2023/06/04 11:28:04;;;;;;;5.30;2.10;;;21.20;87.30;;;;;;4918043;29;20542;-82
2023/06/04 11:30:30;;;;;;;5.55;2.20;;;21.30;87.10;;;;;;4934239;29;20187;-83
2023/06/04 11:33:04;;;;;;;7.68;1.95;;;21.30;87.10;;;;;;4933688;29;20502;-80
2023/06/04 11:35:31;;;;;;;4.47;2.25;;;21.40;87.10;;;;;;4935120;29;20187;-81
2023/06/04 11:37:58;;;;;;;4.88;2.50;;;21.40;87.00;;;;;;4933853;29;20193;-81
2023/06/04 11:40:26;;;;;;;6.05;2.35;;;21.40;86.80;;;;;;4933766;29;20184;-81
2023/06/04 11:42:52;;;;;;;5.15;2.25;;;21.40;86.60;;;;;;4918671;29;20254;-81
2023/06/04 11:45:20;;;;;;;5.15;2.00;;;21.40;86.40;;;;;;4935011;29;20250;-81
2023/06/04 11:47:53;;;;;;;5.50;2.25;;;21.50;86.50;;;;;;4935621;29;20278;-80
2023/06/04 11:50:20;;;;;;;5.18;1.92;;;21.60;85.70;;;;;;4945598;28;20205;-81
2023/06/04 11:52:48;;;;;;;7.10;1.73;;;21.60;85.20;;;;;;4956294;28;20264;-80
2023/06/04 11:55:17;;;;;;;3.97;2.22;;;21.60;84.60;;;;;;4940410;28;20678;-80
2023/06/04 11:57:43;;;;;;;6.25;2.15;;;21.60;84.40;;;;;;4956522;28;20190;-80
2023/06/04 12:00:10;;;;;;;4.25;1.80;;;21.60;84.80;;;;;;4962544;28;20187;-80
2023/06/04 12:02:52;;;;;;;4.30;1.95;;;21.70;84.50;;;;;;4936631;29;20229;-80
2023/06/04 12:05:20;;;;;;;6.30;2.90;;;21.60;83.60;;;;;;4936795;29;20262;-81
2023/06/04 12:07:50;;;;;;;5.90;2.05;;;21.50;83.90;;;;;;4936964;29;20174;-80
2023/06/04 12:10:19;;;;;;;6.07;2.10;;;21.50;84.00;;;;;;4953989;29;20221;-81
2023/06/04 12:12:46;;;;;;;5.03;1.95;;;21.50;84.20;;;;;;4953756;29;20178;-81
2023/06/04 12:15:19;;;;;;;4.18;1.58;;;21.50;84.00;;;;;;4937277;29;20632;-81
2023/06/04 12:17:51;;;;;;;4.30;1.90;;;21.50;84.30;;;;;;4922727;29;20174;-81
2023/06/04 12:20:18;;;;;;;4.03;1.92;;;21.50;84.20;;;;;;4922112;29;20246;-81
2023/06/04 12:22:46;;;;;;;3.65;1.70;;;21.50;84.30;;;;;;4955863;29;20190;-81
2023/06/04 12:25:23;;;;;;;2.85;1.58;;;21.60;84.40;;;;;;4938286;29;20226;-81
2023/06/04 12:27:48;;;;;;;5.88;2.00;;;21.50;84.50;;;;;;4938137;29;20177;-81
2023/06/04 12:30:15;;;;;;;4.90;2.00;;;21.60;84.30;;;;;;4921632;29;20269;-81
2023/06/04 12:32:45;;;;;;;4.82;2.20;;;21.60;84.00;;;;;;4921275;29;20219;-81
2023/06/04 12:35:11;;;;;;;7.85;1.90;;;21.50;84.20;;;;;;4936573;29;20178;-81
2023/06/04 12:37:37;;;;;;;4.80;1.90;;;21.50;84.20;;;;;;4936709;29;20288;-80
2023/06/04 12:40:06;;;;;;;5.35;1.73;;;21.50;84.50;;;;;;4936282;29;20269;-80
2023/06/04 12:42:32;;;;;;;4.70;1.60;;;21.50;84.70;;;;;;4937991;29;20225;-81
2023/06/04 12:44:58;;;;;;;6.00;2.20;;;21.50;84.40;;;;;;4937278;29;20261;-80
2023/06/04 12:47:23;;;;;;;2.65;1.90;;;21.50;84.10;;;;;;4936466;29;20286;-81